Time;durP1;ratioP1;P1;durP2;ratioP2;P2;SDS_P1;SDS_P2;PMS_P1;PMS_P2;Temp;Humidity;BMP_temperature;BMP_pressure;BME280_temperature;BME280_humidity;BME280_pressure;Samples;Min_cycle;Max_cycle;Signal;HPM_P1;HPM_P2
2023/07/06 00:09:20;;;;;;;6.10;3.80;;;;;;;16.73;90.47;99275.27;431327;1272;139311;-61
2023/07/06 00:19:23;;;;;;;6.90;4.60;;;;;;;16.69;91.13;99272.93;430942;1270;140151;-62
2023/07/06 00:29:33;;;;;;;6.00;5.20;;;;;;;16.62;91.41;99263.88;430826;1270;140399;-62
2023/07/06 00:39:36;;;;;;;7.30;5.60;;;;;;;16.52;91.71;99267.61;431096;1270;140612;-62
2023/07/06 00:49:39;;;;;;;6.00;4.50;;;;;;;16.37;92.34;99272.23;431362;1273;140126;-61
2023/07/06 00:59:44;;;;;;;5.10;4.60;;;;;;;16.19;92.97;99273.84;431096;1271;139347;-62
2023/07/06 01:09:49;;;;;;;5.00;4.30;;;;;;;16.09;93.55;99267.92;430807;1268;139195;-61
2023/07/06 01:20:14;;;;;;;5.00;4.50;;;;;;;16.00;93.95;99279.51;430751;1272;139393;-60
2023/07/06 01:30:45;;;;;;;8.70;5.30;;;;;;;15.97;94.42;99286.08;431259;1273;140272;-61
2023/07/06 01:40:48;;;;;;;6.30;5.60;;;;;;;16.05;95.29;99282.20;430990;1271;139132;-62
2023/07/06 01:50:59;;;;;;;11.80;7.10;;;;;;;16.23;95.48;99304.36;431187;1272;139720;-62
2023/07/06 02:01:07;;;;;;;7.90;6.60;;;;;;;16.36;95.14;99315.44;431477;1270;141327;-62
2023/07/06 02:11:11;;;;;;;6.10;5.20;;;;;;;16.40;94.60;99330.23;431399;1273;139194;-61
2023/07/06 02:21:15;;;;;;;7.90;5.70;;;;;;;16.37;93.51;99340.58;431295;1272;139791;-62
2023/07/06 02:31:18;;;;;;;7.00;5.60;;;;;;;16.30;92.48;99342.42;430749;1270;140668;-61
2023/07/06 02:41:21;;;;;;;5.70;4.20;;;;;;;16.16;91.66;99347.98;430775;1271;140858;-61
2023/07/06 02:51:24;;;;;;;7.90;4.40;;;;;;;16.04;91.19;99356.46;430800;1270;140174;-62
2023/07/06 03:01:29;;;;;;;5.30;3.60;;;;;;;15.96;91.02;99376.56;430564;1270;140248;-62
2023/07/06 03:11:32;;;;;;;6.90;3.80;;;;;;;15.94;90.96;99387.85;430730;1268;139846;-61
2023/07/06 03:21:37;;;;;;;4.60;4.00;;;;;;;16.00;90.70;99391.77;430948;1271;139787;-62
2023/07/06 03:31:40;;;;;;;3.80;3.40;;;;;;;16.27;90.45;99397.30;431360;1270;139339;-62
2023/07/06 03:41:43;;;;;;;5.80;3.70;;;;;;;16.70;89.38;99406.43;430883;1272;140159;-60
2023/07/06 03:51:48;;;;;;;5.20;3.40;;;;;;;17.09;87.31;99421.84;430864;1267;139205;-60
2023/07/06 04:01:51;;;;;;;6.20;4.90;;;;;;;17.49;85.87;99433.09;430987;1268;140864;-62
2023/07/06 04:11:55;;;;;;;6.50;3.70;;;;;;;17.87;84.58;99437.79;431158;1267;140403;-60
2023/07/06 04:21:58;;;;;;;6.60;2.70;;;;;;;21.84;82.68;99447.69;431604;1270;140581;-61
2023/07/06 04:32:01;;;;;;;4.50;3.70;;;;;;;28.88;70.64;99453.58;431223;1267;141461;-61
2023/07/06 04:42:06;;;;;;;6.30;2.90;;;;;;;34.10;57.47;99458.84;431065;1270;140794;-62
2023/07/06 04:52:11;;;;;;;3.60;2.80;;;;;;;38.27;45.02;99452.73;430890;1267;139074;-62
2023/07/06 05:02:14;;;;;;;2.90;2.00;;;;;;;41.57;37.39;99458.55;430860;1268;139550;-61
2023/07/06 05:12:17;;;;;;;3.00;1.60;;;;;;;43.76;31.46;99471.65;430525;1270;141215;-62
2023/07/06 05:22:20;;;;;;;5.30;3.00;;;;;;;43.32;27.58;99477.34;430931;1270;139731;-62
2023/07/06 05:32:24;;;;;;;5.20;3.50;;;;;;;42.31;26.73;99485.11;430793;1267;139762;-64
2023/07/06 05:42:27;;;;;;;4.60;3.00;;;;;;;46.15;24.15;99496.02;431062;1267;138465;-63
2023/07/06 05:52:30;;;;;;;3.20;1.70;;;;;;;48.41;21.73;99501.54;431431;1267;138628;-63
2023/07/06 06:02:33;;;;;;;19.20;4.40;;;;;;;48.26;19.95;99515.98;431213;1267;139157;-63
2023/07/06 06:12:36;;;;;;;19.40;6.60;;;;;;;46.76;19.19;99521.75;430875;1270;139072;-69
2023/07/06 06:22:40;;;;;;;24.20;4.00;;;;;;;46.66;18.17;99523.76;433077;1267;138531;-81
2023/07/06 06:32:43;;;;;;;6.10;2.00;;;;;;;48.41;17.24;99536.17;434899;1270;140628;-71
2023/07/06 06:42:47;;;;;;;6.60;1.60;;;;;;;48.50;16.32;99546.39;434308;1267;139669;-69
2023/07/06 06:52:51;;;;;;;7.20;2.50;;;;;;;48.85;15.63;99561.25;434931;1268;138548;-76
2023/07/06 07:02:54;;;;;;;4.30;1.90;;;;;;;47.37;15.40;99567.25;434149;1267;138398;-67
2023/07/06 07:12:57;;;;;;;2.80;1.90;;;;;;;39.05;17.63;99571.98;432581;1267;139320;-73
2023/07/06 07:23:01;;;;;;;5.20;1.50;;;;;;;33.14;21.43;99592.13;434532;1268;139362;-74
2023/07/06 07:33:04;;;;;;;9.90;1.60;;;;;;;30.63;23.38;99613.48;433948;1267;147982;-73
2023/07/06 07:43:08;;;;;;;4.00;1.70;;;;;;;30.76;24.27;99618.73;433529;1267;139467;-70
2023/07/06 07:53:12;;;;;;;4.30;2.40;;;;;;;32.48;23.75;99614.23;431800;1267;138605;-65
2023/07/06 08:03:15;;;;;;;4.60;1.30;;;;;;;32.13;23.91;99621.50;431315;1267;139642;-66
2023/07/06 08:13:18;;;;;;;2.20;1.60;;;;;;;31.51;24.79;99625.54;431398;1267;138766;-64
2023/07/06 08:23:23;;;;;;;2.40;1.90;;;;;;;31.10;24.99;99623.75;431304;1268;139756;-65
2023/07/06 08:33:27;;;;;;;1.80;1.20;;;;;;;30.46;25.01;99625.77;431448;1267;139051;-62
2023/07/06 08:43:32;;;;;;;1.70;1.50;;;;;;;28.73;26.49;99639.50;431373;1270;139048;-67
2023/07/06 08:53:36;;;;;;;4.30;1.40;;;;;;;27.29;28.32;99641.73;431131;1270;139573;-66
2023/07/06 09:03:44;;;;;;;3.30;1.80;;;;;;;26.78;29.24;99640.41;431343;1268;139356;-70
2023/07/06 09:13:49;;;;;;;3.00;1.30;;;;;;;27.38;29.05;99646.65;434564;1267;139403;-73
2023/07/06 09:23:56;;;;;;;2.20;1.40;;;;;;;27.46;28.55;99646.30;431988;1267;139008;-70
2023/07/06 09:33:59;;;;;;;5.40;1.70;;;;;;;27.06;28.65;99645.95;434296;1267;139933;-66
2023/07/06 09:44:03;;;;;;;5.00;2.00;;;;;;;26.65;29.38;99647.04;431018;1270;139344;-69
2023/07/06 09:54:14;;;;;;;2.30;2.00;;;;;;;26.25;29.92;99660.88;431852;1267;139676;-69
2023/07/06 10:04:47;;;;;;;2.60;1.10;;;;;;;25.65;30.64;99665.41;432044;1268;139462;-69
2023/07/06 10:14:51;;;;;;;1.20;1.10;;;;;;;24.74;32.36;99674.45;431785;1268;138370;-67
2023/07/06 10:25:08;;;;;;;1.70;1.50;;;;;;;24.20;33.52;99680.08;431107;1270;138558;-68
2023/07/06 10:35:18;;;;;;;4.70;2.00;;;;;;;24.23;33.97;99682.02;431839;1270;139931;-69
2023/07/06 10:45:36;;;;;;;3.10;1.20;;;;;;;25.13;33.50;99687.21;431395;1267;139100;-67
2023/07/06 10:55:40;;;;;;;2.60;1.40;;;;;;;25.54;32.59;99686.59;432209;1270;139560;-71
2023/07/06 11:05:54;;;;;;;3.40;1.30;;;;;;;26.29;31.48;99693.54;433613;1267;139522;-77
2023/07/06 11:16:04;;;;;;;7.10;2.40;;;;;;;26.93;30.40;99692.66;434008;1267;139600;-75
2023/07/06 11:26:36;;;;;;;3.30;1.40;;;;;;;26.91;29.95;99693.09;433478;1268;138944;-67
2023/07/06 11:36:52;;;;;;;2.10;1.40;;;;;;;27.02;29.42;99700.20;432228;1268;140051;-67
2023/07/06 11:47:16;;;;;;;2.10;1.70;;;;;;;27.28;29.38;99707.04;434108;1268;138792;-76
2023/07/06 11:57:28;;;;;;;2.10;1.70;;;;;;;27.14;28.90;99709.79;433727;1268;139447;-69
2023/07/06 12:07:32;;;;;;;4.20;2.10;;;;;;;27.05;28.40;99710.31;431990;1267;141309;-69
2023/07/06 12:17:35;;;;;;;1.60;1.50;;;;;;;27.14;29.12;99706.60;431668;1270;139505;-68
2023/07/06 12:27:40;;;;;;;6.90;3.10;;;;;;;26.68;29.41;99698.95;432859;1268;139023;-69
2023/07/06 12:37:44;;;;;;;3.10;2.10;;;;;;;25.96;30.11;99689.88;432047;1270;138930;-68
2023/07/06 12:47:54;;;;;;;3.30;1.80;;;;;;;25.61;30.94;99682.28;431395;1270;139388;-68
2023/07/06 12:58:13;;;;;;;2.10;1.60;;;;;;;25.66;31.41;99666.42;431590;1270;138504;-68
2023/07/06 13:08:16;;;;;;;1.90;1.40;;;;;;;25.57;31.96;99656.77;431732;1269;139923;-67
2023/07/06 13:18:21;;;;;;;1.90;1.40;;;;;;;26.00;30.99;99653.24;431600;1268;139827;-69
2023/07/06 13:28:24;;;;;;;4.90;2.30;;;;;;;26.59;30.40;99650.00;431971;1268;138935;-71
2023/07/06 13:38:28;;;;;;;2.60;1.40;;;;;;;26.56;29.58;99641.75;431383;1270;138517;-69
2023/07/06 13:48:31;;;;;;;2.30;1.60;;;;;;;26.36;29.79;99636.33;432518;1270;140194;-69
2023/07/06 13:58:36;;;;;;;5.60;1.90;;;;;;;26.14;29.89;99634.61;432799;1270;138636;-69
2023/07/06 14:08:40;;;;;;;2.70;2.00;;;;;;;25.74;30.02;99637.36;431758;1267;138875;-71
2023/07/06 14:18:44;;;;;;;6.00;2.80;;;;;;;25.46;30.65;99645.01;431669;1270;139469;-72
2023/07/06 14:28:49;;;;;;;3.30;1.60;;;;;;;25.33;31.13;99637.70;431873;1270;138847;-75
2023/07/06 14:38:52;;;;;;;3.90;1.40;;;;;;;25.44;31.05;99636.21;432336;1268;140201;-70
2023/07/06 14:48:55;;;;;;;4.70;1.40;;;;;;;25.40;30.83;99624.25;433217;1270;138539;-70
2023/07/06 14:58:58;;;;;;;2.20;1.10;;;;;;;25.33;31.10;99619.60;432375;1268;139686;-67
2023/07/06 15:09:01;;;;;;;3.00;1.20;;;;;;;25.05;31.41;99615.35;431501;1270;140850;-70
2023/07/06 15:19:04;;;;;;;4.10;1.50;;;;;;;24.59;31.72;99616.52;431408;1268;138516;-67
2023/07/06 15:29:08;;;;;;;3.00;1.40;;;;;;;24.22;32.16;99624.69;431277;1271;140335;-67
2023/07/06 15:39:11;;;;;;;3.00;1.90;;;;;;;23.89;32.84;99630.79;431348;1270;138982;-67
2023/07/06 15:49:14;;;;;;;5.00;1.90;;;;;;;23.57;33.30;99636.70;431319;1270;138715;-67
2023/07/06 15:59:17;;;;;;;3.70;2.30;;;;;;;23.32;34.28;99641.08;431055;1270;138642;-68
2023/07/06 16:09:20;;;;;;;4.20;1.80;;;;;;;23.32;34.12;99637.00;431226;1270;138598;-68
2023/07/06 16:19:23;;;;;;;5.70;2.60;;;;;;;23.40;33.28;99629.90;432815;1270;140089;-68
2023/07/06 16:29:27;;;;;;;2.50;1.30;;;;;;;23.55;32.78;99630.90;431524;1267;140498;-68
2023/07/06 16:39:30;;;;;;;3.90;2.60;;;;;;;23.69;32.76;99628.67;431699;1270;138745;-69
2023/07/06 16:49:33;;;;;;;3.10;2.30;;;;;;;23.78;32.49;99633.50;431452;1268;139416;-67
2023/07/06 16:59:36;;;;;;;4.60;2.50;;;;;;;24.32;31.93;99634.44;431275;1271;140326;-67
2023/07/06 17:09:39;;;;;;;2.40;2.00;;;;;;;24.11;32.13;99636.38;431326;1270;138531;-68
2023/07/06 17:19:42;;;;;;;1.70;1.50;;;;;;;23.71;32.76;99641.16;431300;1270;139079;-67
2023/07/06 17:29:45;;;;;;;4.30;1.50;;;;;;;23.23;33.50;99646.70;431342;1270;138956;-67
2023/07/06 17:39:49;;;;;;;5.40;2.60;;;;;;;22.77;34.93;99650.69;431125;1268;138782;-68
2023/07/06 17:49:52;;;;;;;3.00;1.50;;;;;;;22.43;35.48;99654.04;431204;1271;138633;-67
2023/07/06 17:59:55;;;;;;;2.40;2.20;;;;;;;22.01;36.77;99665.47;431321;1270;138524;-67
2023/07/06 18:09:57;;;;;;;3.00;1.90;;;;;;;21.56;38.30;99669.24;431295;1270;140014;-67
2023/07/06 18:20:00;;;;;;;3.80;2.30;;;;;;;21.17;39.77;99674.30;431263;1270;138728;-67
2023/07/06 18:30:05;;;;;;;5.20;2.40;;;;;;;20.80;41.28;99677.73;431327;1270;139667;-67
2023/07/06 18:40:11;;;;;;;13.30;2.40;;;;;;;20.50;41.99;99685.77;432410;1270;138517;-68
2023/07/06 18:50:14;;;;;;;5.40;2.70;;;;;;;20.30;43.48;99693.31;433592;1271;139073;-67
2023/07/06 19:00:18;;;;;;;8.50;3.80;;;;;;;20.18;44.96;99703.14;431783;1272;139782;-67
2023/07/06 19:10:22;;;;;;;4.80;1.80;;;;;;;20.05;46.17;99711.41;431628;1268;138508;-65
2023/07/06 19:20:27;;;;;;;9.60;2.30;;;;;;;19.81;47.31;99724.55;432078;1267;139890;-66
2023/07/06 19:30:32;;;;;;;8.40;2.50;;;;;;;19.58;47.69;99731.14;431442;1272;150883;-66
2023/07/06 19:40:35;;;;;;;9.60;2.90;;;;;;;19.54;49.19;99742.53;432136;1267;138647;-66
2023/07/06 19:50:38;;;;;;;10.10;6.20;;;;;;;19.42;49.83;99753.44;431492;1267;139624;-66
2023/07/06 20:00:41;;;;;;;4.80;3.00;;;;;;;19.22;50.40;99752.52;431376;1273;139922;-66
2023/07/06 20:10:53;;;;;;;8.80;3.10;;;;;;;18.90;51.90;99756.90;431727;1272;138792;-66
2023/07/06 20:20:56;;;;;;;2.80;2.50;;;;;;;18.42;53.34;99763.31;430945;1270;138442;-65
2023/07/06 20:31:03;;;;;;;5.40;2.40;;;;;;;17.98;54.24;99768.23;430918;1273;139258;-64
2023/07/06 20:41:06;;;;;;;4.80;3.00;;;;;;;17.55;56.07;99781.67;431492;1270;138983;-65
2023/07/06 20:51:09;;;;;;;7.40;3.00;;;;;;;17.18;57.50;99790.81;431412;1273;138320;-66
2023/07/06 21:01:12;;;;;;;4.90;3.40;;;;;;;16.87;58.47;99803.74;431911;1267;139476;-66
2023/07/06 21:11:15;;;;;;;5.10;3.40;;;;;;;16.59;59.42;99808.77;431608;1273;140215;-65
2023/07/06 21:21:18;;;;;;;6.30;5.10;;;;;;;16.36;60.55;99820.23;431963;1267;139037;-65
2023/07/06 21:31:22;;;;;;;9.40;6.90;;;;;;;16.13;61.00;99821.80;431726;1270;139171;-66
2023/07/06 21:41:25;;;;;;;7.60;4.90;;;;;;;15.92;61.48;99828.29;431392;1273;140692;-66
2023/07/06 21:51:29;;;;;;;6.90;5.10;;;;;;;15.71;62.31;99838.13;431549;1268;139468;-66
2023/07/06 22:01:32;;;;;;;6.40;5.20;;;;;;;15.43;63.33;99844.05;431669;1272;140364;-64
2023/07/06 22:11:36;;;;;;;7.20;6.00;;;;;;;15.18;63.86;99848.89;431977;1268;140343;-66
2023/07/06 22:21:39;;;;;;;10.90;9.50;;;;;;;14.95;64.89;99860.20;432132;1270;139167;-64
2023/07/06 22:31:42;;;;;;;7.90;5.00;;;;;;;14.80;65.69;99866.42;431917;1267;141577;-64
2023/07/06 22:41:46;;;;;;;6.10;4.40;;;;;;;14.59;66.37;99865.17;431619;1268;140904;-66
2023/07/06 22:51:49;;;;;;;7.30;4.60;;;;;;;14.37;67.25;99861.70;431495;1269;139205;-66
2023/07/06 23:01:52;;;;;;;8.20;5.40;;;;;;;14.17;67.95;99861.08;431334;1267;139195;-65
2023/07/06 23:11:56;;;;;;;5.80;4.70;;;;;;;14.02;68.62;99864.82;431569;1270;139686;-65
2023/07/06 23:22:00;;;;;;;6.10;5.20;;;;;;;13.82;69.11;99865.26;431966;1267;139296;-66
2023/07/06 23:32:03;;;;;;;5.30;4.80;;;;;;;13.64;69.89;99867.96;431486;1271;139411;-65
2023/07/06 23:42:07;;;;;;;5.80;5.10;;;;;;;13.47;70.21;99872.15;432438;1267;140043;-64
2023/07/06 23:52:10;;;;;;;7.50;5.10;;;;;;;13.34;71.09;99874.64;432085;1267;139478;-65
